Vail, Washington
Current Conditions -  °F | °C
As of 4:54 AM on Thursday 30 Oct 2014 (Local Time) from KOLM Reporting Station
Overcast Overcast  
Wind Chill: 53°   Ceiling: 9500
Heat Index: 53°   Visibility: 9mi
Dew Point: 51°   Wind: 0mph
Humidity: 93%   Direction: NA
Pressure: 29.92"   Gusts: NA
Location:  46.8214°N, 122.662°W
Report Text: KOLM 301154Z AUTO 00000KT 9SM OVC095 12/11 A2992 RMK AO2 SLP131 70001 T01170106 10117 20106 58020
Loading
Personal Weather Stations






























Interactive Weather Map New forecast layout! Learn more

10-Day Weather Forecast

Advertisements
Track Severe Weather on mobile